Time;durP1;ratioP1;P1;durP2;ratioP2;P2;SDS_P1;SDS_P2;PMS_P1;PMS_P2;Temp;Humidity;BMP_temperature;BMP_pressure;BME280_temperature;BME280_humidity;BME280_pressure;Samples;Min_cycle;Max_cycle;Signal;HPM_P1;HPM_P2
2021/12/17 00:00:32;;;;;;;93.35;24.90;;;8.80;99.90;;;;;;4968103;28;20838;-83
2021/12/17 00:05:42;;;;;;;87.88;25.15;;;8.70;99.90;;;;;;4981996;28;20463;-84
2021/12/17 00:08:08;;;;;;;87.95;24.35;;;8.70;99.90;;;;;;4962941;28;20577;-84
2021/12/17 00:10:34;;;;;;;84.43;24.48;;;8.70;99.90;;;;;;4952012;28;20052;-84
2021/12/17 00:13:00;;;;;;;100.35;25.52;;;8.70;99.90;;;;;;4975168;28;20444;-84
2021/12/17 00:15:26;;;;;;;79.60;23.92;;;8.70;99.90;;;;;;4959188;28;20036;-83
2021/12/17 00:17:58;;;;;;;77.82;23.80;;;8.70;99.90;;;;;;4956436;28;20047;-84
2021/12/17 00:52:42;;;;;;;78.93;23.73;;;8.70;99.90;;;;;;4979512;28;20044;-83
2021/12/17 00:55:08;;;;;;;73.88;24.52;;;8.70;99.90;;;;;;4977264;28;20102;-83
2021/12/17 00:57:40;;;;;;;68.05;23.23;;;8.60;99.90;;;;;;4961318;28;20051;-84
2021/12/17 01:00:14;;;;;;;74.38;24.35;;;8.70;99.90;;;;;;4980284;28;20798;-83
2021/12/17 01:02:41;;;;;;;77.72;24.85;;;8.70;99.90;;;;;;4981128;28;20349;-83
2021/12/17 01:05:11;;;;;;;76.50;24.60;;;8.60;99.90;;;;;;4982468;28;20522;-84
2021/12/17 01:07:40;;;;;;;76.03;25.27;;;8.70;99.90;;;;;;4982051;28;20048;-83
2021/12/17 01:10:17;;;;;;;76.65;25.15;;;8.70;99.90;;;;;;4967714;28;20458;-83
2021/12/17 01:12:43;;;;;;;102.10;27.63;;;8.70;99.90;;;;;;4987832;28;20995;-84
2021/12/17 01:15:11;;;;;;;74.38;25.60;;;8.70;99.90;;;;;;4981341;28;20147;-83
2021/12/17 01:17:41;;;;;;;80.00;24.80;;;8.70;99.90;;;;;;5005019;28;20440;-84
2021/12/17 01:20:21;;;;;;;71.97;25.63;;;8.70;99.90;;;;;;4969094;28;20177;-83
2021/12/17 01:35:20;;;;;;;105.68;26.20;;;8.70;99.90;;;;;;4982164;28;20079;-82
2021/12/17 01:36:28;;;;;;;81.43;26.92;;;8.70;99.90;;;;;;4984350;28;20052;-82
2021/12/17 01:40:02;;;;;;;78.25;27.67;;;8.80;99.90;;;;;;5001561;28;20048;-82
2021/12/17 01:42:06;;;;;;;87.20;25.83;;;8.80;99.90;;;;;;4996228;28;20807;-83
2021/12/17 01:44:37;;;;;;;101.97;26.13;;;8.80;99.90;;;;;;4982316;28;20442;-83
2021/12/17 01:47:06;;;;;;;137.80;27.85;;;8.70;99.90;;;;;;4979420;28;20442;-82
2021/12/17 02:00:24;;;;;;;84.65;26.27;;;8.70;99.90;;;;;;4996281;28;20513;-83
2021/12/17 02:02:55;;;;;;;86.65;25.55;;;8.70;99.90;;;;;;4997366;28;20055;-83
2021/12/17 02:05:21;;;;;;;101.00;25.38;;;8.70;99.90;;;;;;4998004;28;20105;-83
2021/12/17 02:07:51;;;;;;;72.30;25.25;;;8.70;99.90;;;;;;4986420;28;20040;-83
2021/12/17 02:19:24;;;;;;;98.97;24.40;;;8.80;99.90;;;;;;4998905;28;20044;-83
2021/12/17 02:32:04;;;;;;;48.15;15.43;;;8.80;99.90;;;;;;5001074;28;20528;-83
2021/12/17 02:37:08;;;;;;;48.88;14.57;;;8.80;99.90;;;;;;5019669;28;20506;-83
2021/12/17 02:47:39;;;;;;;36.67;12.98;;;8.80;99.90;;;;;;5013725;28;20051;-83
2021/12/17 02:50:07;;;;;;;36.20;12.93;;;8.70;99.90;;;;;;5022484;28;20085;-83
2021/12/17 02:52:36;;;;;;;39.20;11.27;;;8.80;99.90;;;;;;5007386;28;20898;-84
2021/12/17 02:55:05;;;;;;;31.70;11.93;;;8.80;99.90;;;;;;5000924;28;20070;-83
2021/12/17 02:57:31;;;;;;;38.75;12.10;;;8.70;99.90;;;;;;4994122;28;20047;-83
2021/12/17 02:59:59;;;;;;;30.80;11.68;;;8.80;99.90;;;;;;5005772;28;20051;-83
2021/12/17 03:02:28;;;;;;;35.03;11.88;;;8.70;99.90;;;;;;4998439;28;20051;-83
2021/12/17 03:04:54;;;;;;;30.60;11.55;;;8.80;99.90;;;;;;4992541;28;20531;-83
2021/12/17 03:07:21;;;;;;;32.75;11.57;;;8.80;99.90;;;;;;4980341;28;20371;-83
2021/12/17 03:12:18;;;;;;;49.95;12.65;;;8.80;99.90;;;;;;5015480;28;20138;-83
2021/12/17 03:14:54;;;;;;;31.55;11.27;;;8.80;99.90;;;;;;5000262;28;20106;-83
2021/12/17 03:17:38;;;;;;;34.75;11.88;;;8.80;99.90;;;;;;4998137;28;20046;-83
2021/12/17 03:25:34;;;;;;;29.90;11.40;;;8.80;99.90;;;;;;4982586;28;20688;-83
2021/12/17 03:28:00;;;;;;;30.90;11.18;;;8.90;99.90;;;;;;4978280;28;20051;-83
2021/12/17 03:30:25;;;;;;;26.17;10.90;;;8.80;99.90;;;;;;4960645;28;20040;-83
2021/12/17 03:32:51;;;;;;;28.98;11.63;;;8.80;99.90;;;;;;4985333;28;20040;-83
2021/12/17 03:35:17;;;;;;;31.58;11.93;;;8.90;99.90;;;;;;4969668;28;20059;-83
2021/12/17 03:37:42;;;;;;;35.03;12.40;;;8.90;99.90;;;;;;4981777;28;20048;-83
2021/12/17 03:40:13;;;;;;;31.58;12.10;;;8.80;99.90;;;;;;4976754;28;20123;-83
2021/12/17 03:42:45;;;;;;;42.88;12.73;;;8.80;99.90;;;;;;4962727;28;20622;-83
2021/12/17 03:45:11;;;;;;;39.95;11.63;;;8.70;99.90;;;;;;4980606;28;20787;-83
2021/12/17 03:47:37;;;;;;;32.10;11.70;;;8.70;99.90;;;;;;4962724;28;20078;-84
2021/12/17 03:50:04;;;;;;;40.78;12.00;;;8.80;99.90;;;;;;4950275;28;20051;-83
2021/12/17 03:52:29;;;;;;;30.83;11.85;;;8.80;99.90;;;;;;4981012;28;20448;-83
2021/12/17 03:54:56;;;;;;;30.52;11.27;;;8.80;99.90;;;;;;4953615;28;20434;-84
2021/12/17 03:57:22;;;;;;;29.67;11.18;;;8.80;99.90;;;;;;4977747;28;20236;-83
2021/12/17 03:59:51;;;;;;;32.25;11.85;;;8.80;99.90;;;;;;4975988;28;20588;-84
2021/12/17 04:02:19;;;;;;;32.13;12.30;;;8.90;99.90;;;;;;4982008;28;20070;-83
2021/12/17 04:04:46;;;;;;;32.40;11.13;;;8.90;99.90;;;;;;4978500;28;20664;-83
2021/12/17 04:07:11;;;;;;;28.20;11.20;;;8.80;99.90;;;;;;4982963;28;20074;-83
2021/12/17 04:09:37;;;;;;;27.08;11.55;;;8.80;99.90;;;;;;4972240;28;20109;-83
2021/12/17 04:12:08;;;;;;;28.10;11.38;;;8.80;99.90;;;;;;4972365;28;20052;-83
2021/12/17 04:14:44;;;;;;;31.40;11.75;;;8.80;99.90;;;;;;4977499;28;20109;-83
2021/12/17 04:17:11;;;;;;;31.52;11.63;;;8.80;99.90;;;;;;4977617;28;20188;-83
2021/12/17 04:19:37;;;;;;;35.80;11.45;;;8.80;99.90;;;;;;4982035;28;20514;-83
2021/12/17 04:22:03;;;;;;;29.38;11.65;;;8.80;99.90;;;;;;4997602;28;20084;-83
2021/12/17 04:24:30;;;;;;;28.25;10.98;;;8.80;99.90;;;;;;5000687;28;20503;-83
2021/12/17 04:26:56;;;;;;;26.75;10.88;;;8.80;99.90;;;;;;4998895;28;20058;-83
2021/12/17 04:29:22;;;;;;;29.55;11.68;;;8.80;99.90;;;;;;4995184;28;20634;-84
2021/12/17 04:31:54;;;;;;;24.85;10.93;;;8.70;99.90;;;;;;4973445;28;20597;-83
2021/12/17 04:34:22;;;;;;;28.75;11.48;;;8.80;99.90;;;;;;4998592;28;20556;-84
2021/12/17 04:36:50;;;;;;;29.23;11.07;;;8.80;99.90;;;;;;4998828;28;20488;-84
2021/12/17 04:39:18;;;;;;;31.17;12.15;;;8.80;99.90;;;;;;4978628;28;20086;-84
2021/12/17 04:44:21;;;;;;;31.38;11.07;;;8.80;99.90;;;;;;5005301;28;20048;-84
2021/12/17 04:57:43;;;;;;;29.05;11.32;;;8.80;99.90;;;;;;5016856;28;20082;-84
2021/12/17 05:00:14;;;;;;;32.83;11.48;;;8.80;99.90;;;;;;4994779;28;20063;-84
2021/12/17 05:02:47;;;;;;;30.60;11.93;;;8.80;99.90;;;;;;5003932;28;21150;-84
2021/12/17 05:05:14;;;;;;;30.27;10.60;;;8.70;99.90;;;;;;4992653;28;20476;-84
2021/12/17 05:07:46;;;;;;;28.60;11.38;;;8.70;99.90;;;;;;5003405;28;20431;-84
2021/12/17 05:18:22;;;;;;;30.95;11.07;;;8.80;99.90;;;;;;4974205;28;20218;-84
2021/12/17 05:20:53;;;;;;;27.35;11.23;;;8.80;99.90;;;;;;4982490;28;20052;-84
2021/12/17 05:23:27;;;;;;;30.55;11.38;;;8.80;99.90;;;;;;5021486;28;20039;-84
2021/12/17 05:25:55;;;;;;;30.80;11.55;;;8.80;99.90;;;;;;5003235;28;20547;-84
2021/12/17 05:28:21;;;;;;;25.05;9.88;;;8.80;99.90;;;;;;4984782;28;20113;-84
2021/12/17 05:30:48;;;;;;;27.38;10.82;;;8.70;99.90;;;;;;4992244;28;20118;-84
2021/12/17 05:33:21;;;;;;;27.70;10.95;;;8.70;99.90;;;;;;5001383;28;20054;-84
2021/12/17 05:35:48;;;;;;;24.85;9.88;;;8.70;99.90;;;;;;4999281;28;20043;-84
2021/12/17 05:38:16;;;;;;;27.27;10.60;;;8.70;99.90;;;;;;5016956;28;20124;-84
2021/12/17 05:40:43;;;;;;;31.80;10.68;;;8.70;99.90;;;;;;5013535;28;20432;-84
2021/12/17 05:43:10;;;;;;;25.05;9.95;;;8.70;99.90;;;;;;4999388;28;20048;-85
2021/12/17 05:45:51;;;;;;;29.58;10.65;;;8.60;99.90;;;;;;5001459;28;20558;-84
2021/12/17 05:48:20;;;;;;;30.35;11.00;;;8.70;99.90;;;;;;5011557;27;20641;-85
2021/12/17 05:50:47;;;;;;;28.58;11.40;;;8.70;99.90;;;;;;5005733;28;20036;-84
2021/12/17 05:53:14;;;;;;;24.88;10.68;;;8.70;99.90;;;;;;5001155;28;20043;-84
2021/12/17 05:55:40;;;;;;;28.75;11.20;;;8.60;99.90;;;;;;4977762;28;20040;-84
2021/12/17 05:58:08;;;;;;;23.85;10.00;;;8.70;99.90;;;;;;4977944;28;20715;-84
2021/12/17 06:00:34;;;;;;;26.83;10.68;;;8.60;99.90;;;;;;5023616;28;20743;-84
2021/12/17 06:03:01;;;;;;;26.95;10.60;;;8.60;99.90;;;;;;5000696;28;20398;-84
2021/12/17 06:05:28;;;;;;;30.08;10.27;;;8.50;99.90;;;;;;4999832;28;20073;-84
2021/12/17 06:07:55;;;;;;;26.13;11.20;;;8.50;99.90;;;;;;4988914;28;20055;-84
2021/12/17 06:10:21;;;;;;;29.95;11.25;;;8.50;99.90;;;;;;5012881;28;20113;-84
2021/12/17 06:12:47;;;;;;;38.00;14.32;;;8.50;99.90;;;;;;4999313;28;20957;-84
2021/12/17 06:15:16;;;;;;;27.45;11.70;;;8.50;99.90;;;;;;4999759;28;20643;-84
2021/12/17 06:17:43;;;;;;;26.83;12.23;;;8.50;99.90;;;;;;4984844;28;20512;-85
2021/12/17 06:20:12;;;;;;;23.98;11.05;;;8.50;99.90;;;;;;4983913;28;20135;-84
2021/12/17 06:22:38;;;;;;;25.75;10.70;;;8.50;99.90;;;;;;4993092;28;20354;-84
2021/12/17 06:25:05;;;;;;;25.25;10.70;;;8.40;99.90;;;;;;4983943;28;20043;-84
2021/12/17 06:27:31;;;;;;;25.10;10.20;;;8.50;99.90;;;;;;4966365;28;20061;-84
2021/12/17 06:29:58;;;;;;;27.98;12.38;;;8.40;99.90;;;;;;5006494;28;20032;-84
2021/12/17 06:32:24;;;;;;;26.75;10.77;;;8.50;99.90;;;;;;5001475;28;20572;-84
2021/12/17 06:34:50;;;;;;;26.95;11.48;;;8.40;99.90;;;;;;5004353;28;20112;-84
2021/12/17 06:37:17;;;;;;;30.38;11.63;;;8.50;99.90;;;;;;5003708;28;20074;-84
2021/12/17 06:39:45;;;;;;;26.05;11.20;;;8.50;99.90;;;;;;5001767;28;20746;-84
2021/12/17 06:42:12;;;;;;;27.40;11.63;;;8.50;99.90;;;;;;5002069;28;21037;-84
2021/12/17 06:44:42;;;;;;;27.33;11.45;;;8.60;99.90;;;;;;5008176;28;20488;-84
2021/12/17 06:47:25;;;;;;;30.20;11.50;;;8.50;99.90;;;;;;5005209;28;20599;-84
2021/12/17 06:49:59;;;;;;;27.70;11.52;;;8.40;99.90;;;;;;5002897;28;20758;-84
2021/12/17 07:05:58;;;;;;;29.75;11.85;;;8.50;99.90;;;;;;5005951;28;20535;-84
2021/12/17 07:11:01;;;;;;;26.90;11.50;;;8.40;99.90;;;;;;5000053;28;20209;-84
2021/12/17 07:21:32;;;;;;;27.67;12.07;;;8.40;99.90;;;;;;4996806;28;20059;-84
2021/12/17 07:34:51;;;;;;;34.80;13.02;;;8.50;99.90;;;;;;4998149;28;20771;-85
2021/12/17 07:39:44;;;;;;;41.83;13.80;;;8.50;99.90;;;;;;5019674;28;20481;-84
2021/12/17 07:42:10;;;;;;;32.83;13.60;;;8.50;99.90;;;;;;5004593;28;20043;-85
2021/12/17 07:44:36;;;;;;;34.30;13.82;;;8.50;99.90;;;;;;4980908;28;20872;-85
2021/12/17 07:47:02;;;;;;;40.53;13.70;;;8.50;99.90;;;;;;5002878;28;20421;-84
2021/12/17 07:49:28;;;;;;;29.75;13.18;;;8.50;99.90;;;;;;5000640;28;20578;-84
2021/12/17 07:51:53;;;;;;;33.53;12.82;;;8.60;99.90;;;;;;4980827;28;20126;-84
2021/12/17 07:54:22;;;;;;;43.85;13.02;;;8.50;99.90;;;;;;4983245;28;20047;-85
2021/12/17 07:56:48;;;;;;;37.63;13.23;;;8.50;99.90;;;;;;4986546;28;20061;-82
2021/12/17 07:59:14;;;;;;;33.28;13.00;;;8.60;99.90;;;;;;4994893;28;20365;-84
2021/12/17 08:01:40;;;;;;;47.08;15.23;;;8.40;99.90;;;;;;5001761;28;20048;-84
2021/12/17 08:04:08;;;;;;;36.45;13.35;;;8.40;99.90;;;;;;4973413;28;20249;-85
2021/12/17 08:06:35;;;;;;;38.80;13.60;;;8.50;99.90;;;;;;5001838;28;20438;-84
2021/12/17 08:09:01;;;;;;;36.67;13.27;;;8.50;99.90;;;;;;5002373;28;20452;-84
2021/12/17 08:11:27;;;;;;;34.35;12.98;;;8.50;99.90;;;;;;4996081;28;20039;-84
2021/12/17 08:13:55;;;;;;;29.48;12.27;;;8.50;99.90;;;;;;5005196;28;20568;-84
2021/12/17 08:19:07;;;;;;;33.22;12.48;;;8.60;99.90;;;;;;4996609;28;20274;-84
2021/12/17 08:29:28;;;;;;;37.67;12.85;;;8.70;99.90;;;;;;5006116;28;20075;-82
2021/12/17 08:31:54;;;;;;;35.90;12.60;;;8.70;99.90;;;;;;5001892;28;20131;-84
2021/12/17 08:34:20;;;;;;;34.33;11.95;;;8.70;99.90;;;;;;5001398;28;20448;-84
2021/12/17 08:36:46;;;;;;;29.33;12.90;;;8.70;99.90;;;;;;4974630;28;20422;-84
2021/12/17 08:39:13;;;;;;;34.45;12.30;;;8.70;99.90;;;;;;4999937;28;20039;-85
2021/12/17 08:41:40;;;;;;;28.75;12.57;;;8.80;99.90;;;;;;4982256;28;20056;-84
2021/12/17 08:44:06;;;;;;;27.50;12.05;;;8.80;99.90;;;;;;4987813;28;20159;-84
2021/12/17 08:46:33;;;;;;;33.65;12.43;;;8.80;99.90;;;;;;5005158;28;20510;-84
2021/12/17 08:48:59;;;;;;;40.80;13.63;;;8.90;99.90;;;;;;4970755;28;20450;-85
2021/12/17 08:51:25;;;;;;;36.00;13.55;;;8.90;99.90;;;;;;5004776;28;20114;-83
2021/12/17 08:53:52;;;;;;;32.78;13.02;;;8.90;99.90;;;;;;4993492;28;20052;-83
2021/12/17 08:56:22;;;;;;;36.28;13.10;;;8.90;99.90;;;;;;5005136;28;20872;-85
2021/12/17 08:58:51;;;;;;;29.65;12.68;;;8.90;99.90;;;;;;5002307;28;20108;-83
2021/12/17 09:01:18;;;;;;;37.22;13.32;;;9.00;99.90;;;;;;5006715;28;20738;-85
2021/12/17 09:03:45;;;;;;;30.13;12.07;;;9.00;99.90;;;;;;4979855;28;20055;-83
2021/12/17 09:06:10;;;;;;;35.70;12.45;;;9.00;99.90;;;;;;5002029;28;20434;-84
2021/12/17 09:08:36;;;;;;;37.75;13.25;;;8.90;99.90;;;;;;4983679;28;20044;-83
2021/12/17 09:11:02;;;;;;;31.30;12.43;;;9.00;99.90;;;;;;4995260;28;20044;-84
2021/12/17 09:13:28;;;;;;;28.77;11.95;;;9.10;99.90;;;;;;4977294;28;20349;-82
2021/12/17 09:16:04;;;;;;;30.58;12.80;;;9.10;99.90;;;;;;5000528;28;20050;-84
2021/12/17 09:18:31;;;;;;;28.15;12.32;;;9.10;99.90;;;;;;5001281;28;20047;-84
2021/12/17 09:20:57;;;;;;;29.63;12.32;;;9.10;99.90;;;;;;4984995;28;20060;-84
2021/12/17 09:23:23;;;;;;;27.42;12.05;;;9.10;99.90;;;;;;5001076;28;20058;-82
2021/12/17 09:25:49;;;;;;;30.55;12.68;;;9.20;99.90;;;;;;4998241;28;20054;-84
2021/12/17 09:28:15;;;;;;;30.65;13.13;;;9.10;99.90;;;;;;4983544;28;20332;-85
2021/12/17 09:30:42;;;;;;;28.90;13.25;;;9.20;99.90;;;;;;4982618;28;20089;-84
2021/12/17 09:33:08;;;;;;;28.42;12.27;;;9.30;99.90;;;;;;5004535;28;20089;-85
2021/12/17 09:35:33;;;;;;;25.90;12.90;;;9.20;99.90;;;;;;5004321;28;20522;-85
2021/12/17 09:37:59;;;;;;;30.15;13.55;;;9.30;99.90;;;;;;4970796;28;20131;-85
2021/12/17 09:40:25;;;;;;;27.35;12.77;;;9.30;99.90;;;;;;4977056;28;20047;-83
2021/12/17 09:42:51;;;;;;;31.58;13.63;;;9.30;99.90;;;;;;4984740;28;20043;-84
2021/12/17 09:45:18;;;;;;;29.15;13.02;;;9.30;99.90;;;;;;5004329;28;20108;-84
2021/12/17 09:47:46;;;;;;;30.52;13.23;;;9.40;99.90;;;;;;5000626;28;20451;-85
2021/12/17 09:50:15;;;;;;;30.92;14.05;;;9.40;99.90;;;;;;5003535;28;20128;-85
2021/12/17 09:52:41;;;;;;;35.85;14.40;;;9.40;99.90;;;;;;4992687;28;20898;-86
2021/12/17 09:55:08;;;;;;;23.10;11.90;;;9.30;99.90;;;;;;5006110;28;20434;-85
2021/12/17 09:57:37;;;;;;;35.22;13.70;;;9.20;99.90;;;;;;5015707;28;20058;-85
2021/12/17 10:00:17;;;;;;;26.48;12.45;;;9.40;99.90;;;;;;4987811;28;20052;-85
2021/12/17 10:02:44;;;;;;;28.13;12.88;;;9.30;99.90;;;;;;5004719;28;20043;-85
2021/12/17 10:05:34;;;;;;;27.05;13.38;;;9.40;99.90;;;;;;4996957;28;20051;-85
2021/12/17 10:08:06;;;;;;;26.95;13.23;;;9.40;99.90;;;;;;4992410;28;20743;-85
2021/12/17 10:10:44;;;;;;;26.88;12.82;;;9.40;99.90;;;;;;5004891;28;20051;-84
2021/12/17 10:13:19;;;;;;;31.20;13.60;;;9.40;99.90;;;;;;5004574;28;20836;-84
2021/12/17 10:15:47;;;;;;;31.33;14.65;;;9.40;99.90;;;;;;5005134;28;20047;-84
2021/12/17 10:18:13;;;;;;;29.25;13.02;;;9.40;99.90;;;;;;5005269;28;20632;-84
2021/12/17 10:20:53;;;;;;;28.33;14.25;;;9.50;99.90;;;;;;5003531;28;20047;-85
2021/12/17 10:23:21;;;;;;;29.48;13.95;;;9.50;99.90;;;;;;5006148;28;20816;-83
2021/12/17 10:25:48;;;;;;;27.40;13.73;;;9.50;99.90;;;;;;5002702;28;20412;-86
2021/12/17 10:28:15;;;;;;;31.48;13.15;;;9.30;99.90;;;;;;4972905;28;20584;-85
2021/12/17 10:30:43;;;;;;;30.40;13.05;;;9.50;99.90;;;;;;5006684;28;20281;-85
2021/12/17 10:33:14;;;;;;;26.33;12.63;;;9.50;99.90;;;;;;4981270;28;20429;-83
2021/12/17 10:35:45;;;;;;;32.42;13.27;;;9.50;99.90;;;;;;5004590;28;20044;-83
2021/12/17 10:38:15;;;;;;;32.08;12.90;;;9.50;99.90;;;;;;4987526;28;20040;-84
2021/12/17 10:43:33;;;;;;;26.52;12.07;;;9.50;99.90;;;;;;5002411;28;20066;-85
2021/12/17 10:46:09;;;;;;;24.45;12.48;;;9.60;99.90;;;;;;5005584;28;20047;-85
2021/12/17 10:51:42;;;;;;;27.15;11.75;;;9.60;99.90;;;;;;5005112;28;20086;-84
2021/12/17 10:54:19;;;;;;;27.75;12.18;;;9.60;99.90;;;;;;5009831;28;20500;-85
2021/12/17 10:56:51;;;;;;;23.60;12.00;;;9.70;99.90;;;;;;5004432;28;20477;-85
2021/12/17 10:59:22;;;;;;;22.15;11.57;;;9.80;99.90;;;;;;5008262;28;20931;-85
2021/12/17 11:01:59;;;;;;;20.75;11.25;;;9.80;99.90;;;;;;5005762;28;20108;-85
2021/12/17 11:04:25;;;;;;;23.05;11.57;;;9.60;99.90;;;;;;5010661;28;20842;-86
2021/12/17 11:06:55;;;;;;;20.67;11.38;;;9.70;99.90;;;;;;5000776;28;20066;-85
2021/12/17 11:09:45;;;;;;;20.48;11.02;;;9.80;99.90;;;;;;5005042;28;20481;-85
2021/12/17 11:12:13;;;;;;;20.10;10.65;;;9.80;99.90;;;;;;5003692;28;20641;-86
2021/12/17 11:14:43;;;;;;;20.00;11.52;;;9.80;99.90;;;;;;5002159;28;20086;-85
2021/12/17 11:17:17;;;;;;;18.73;11.15;;;9.80;99.90;;;;;;4989762;28;20769;-84
2021/12/17 11:19:44;;;;;;;;;;;9.90;99.90;;;;;;5004651;28;20064;-85
2021/12/17 11:22:10;;;;;;;19.88;11.35;;;9.90;99.90;;;;;;5003693;28;20261;-84
2021/12/17 11:24:37;;;;;;;19.55;11.07;;;9.90;99.90;;;;;;4965819;28;20047;-83
2021/12/17 11:27:05;;;;;;;19.13;11.30;;;10.00;99.90;;;;;;5003387;28;20048;-84
2021/12/17 11:29:31;;;;;;;18.85;11.30;;;10.00;99.90;;;;;;5005558;28;20047;-84
2021/12/17 11:31:59;;;;;;;18.13;10.27;;;10.00;99.90;;;;;;5006964;28;20550;-85
2021/12/17 11:34:27;;;;;;;16.90;9.60;;;10.00;99.90;;;;;;5002649;28;20927;-86
2021/12/17 11:36:54;;;;;;;15.00;9.43;;;9.90;99.90;;;;;;5004444;28;20662;-86
2021/12/17 11:39:28;;;;;;;18.05;10.40;;;9.90;99.90;;;;;;5004317;28;20550;-86
2021/12/17 11:42:36;;;;;;;17.40;10.35;;;10.00;99.90;;;;;;5006708;28;20449;-84
2021/12/17 11:45:24;;;;;;;16.02;10.48;;;10.10;99.90;;;;;;4992903;28;20463;-85
2021/12/17 11:47:51;;;;;;;16.15;9.82;;;10.10;99.90;;;;;;5004744;28;20043;-85
2021/12/17 11:50:19;;;;;;;19.65;10.73;;;10.10;99.90;;;;;;5006504;28;20465;-85
2021/12/17 11:52:53;;;;;;;17.60;9.52;;;10.20;99.90;;;;;;5005495;28;21021;-85
2021/12/17 11:55:36;;;;;;;16.55;10.75;;;10.10;99.90;;;;;;5005638;28;20043;-87
2021/12/17 11:58:10;;;;;;;17.45;9.88;;;10.20;99.90;;;;;;4997116;28;20142;-86
2021/12/17 12:00:39;;;;;;;16.40;9.68;;;10.20;99.90;;;;;;5008129;28;20120;-86
2021/12/17 12:03:16;;;;;;;15.50;9.80;;;10.10;99.90;;;;;;5000149;28;20421;-85
2021/12/17 12:05:52;;;;;;;16.52;9.93;;;10.10;99.90;;;;;;5003977;28;20076;-86
2021/12/17 12:08:46;;;;;;;14.57;9.88;;;10.20;99.90;;;;;;5004717;28;20098;-85
2021/12/17 12:11:12;;;;;;;;;;;10.20;99.90;;;;;;5003774;28;20402;-85
2021/12/17 12:13:49;;;;;;;15.85;9.23;;;10.10;99.90;;;;;;5004060;28;20759;-85
2021/12/17 12:16:24;;;;;;;16.63;9.65;;;10.20;99.90;;;;;;5023304;28;20102;-86
2021/12/17 12:18:52;;;;;;;13.82;8.63;;;10.20;99.90;;;;;;4984170;28;20047;-84
2021/12/17 12:21:21;;;;;;;17.10;9.75;;;10.10;99.90;;;;;;5000852;28;20929;-85
2021/12/17 12:23:50;;;;;;;16.92;9.63;;;10.10;99.90;;;;;;4987682;28;20043;-85
2021/12/17 12:26:21;;;;;;;15.38;9.48;;;10.20;99.90;;;;;;5003977;28;20337;-86
2021/12/17 12:31:31;;;;;;;15.95;9.73;;;10.20;99.90;;;;;;5005511;28;20527;-84
2021/12/17 12:34:12;;;;;;;15.52;9.20;;;10.20;99.90;;;;;;4999882;28;20416;-86
2021/12/17 12:36:47;;;;;;;18.48;9.82;;;10.30;99.90;;;;;;4988699;28;20107;-86
2021/12/17 12:39:38;;;;;;;15.75;9.43;;;10.30;99.90;;;;;;5024103;28;20122;-84
2021/12/17 12:42:17;;;;;;;15.48;9.95;;;10.30;99.90;;;;;;4976752;28;20480;-84
2021/12/17 12:44:43;;;;;;;18.30;10.10;;;10.20;99.90;;;;;;4983260;28;20577;-85
2021/12/17 12:47:09;;;;;;;16.85;9.82;;;10.30;99.90;;;;;;5001467;28;20058;-85
2021/12/17 12:49:54;;;;;;;17.45;9.55;;;10.30;99.90;;;;;;5005411;28;20103;-85
2021/12/17 12:52:32;;;;;;;18.25;10.40;;;10.10;99.90;;;;;;5001076;28;20055;-85
2021/12/17 12:55:18;;;;;;;15.27;9.95;;;10.20;99.90;;;;;;5002049;28;20793;-85
2021/12/17 12:57:55;;;;;;;16.30;10.10;;;10.20;99.90;;;;;;5005030;28;20865;-85
2021/12/17 13:00:30;;;;;;;18.10;10.55;;;10.20;99.90;;;;;;5001518;28;20040;-84
2021/12/17 13:03:01;;;;;;;15.63;10.18;;;10.20;99.90;;;;;;4979821;28;20049;-86
2021/12/17 13:05:27;;;;;;;18.20;10.82;;;10.10;99.90;;;;;;5005660;28;20593;-83
2021/12/17 13:08:01;;;;;;;16.33;10.23;;;10.10;99.90;;;;;;5007720;28;20044;-84
2021/12/17 13:10:30;;;;;;;15.88;10.13;;;10.10;99.90;;;;;;5008454;28;20505;-85
2021/12/17 13:13:22;;;;;;;16.92;10.57;;;10.00;99.90;;;;;;4992058;28;20096;-85
2021/12/17 13:24:13;;;;;;;16.40;10.35;;;10.20;99.90;;;;;;5006634;28;20055;-86
2021/12/17 13:26:50;;;;;;;21.85;11.20;;;10.20;99.90;;;;;;5010744;28;20039;-85
2021/12/17 13:29:31;;;;;;;17.00;10.90;;;10.20;99.90;;;;;;4994124;28;20136;-85
2021/12/17 13:32:13;;;;;;;18.73;11.07;;;10.20;99.90;;;;;;4978116;28;21013;-84
2021/12/17 13:34:44;;;;;;;17.77;10.70;;;10.20;99.90;;;;;;5008665;28;20823;-86
2021/12/17 13:37:21;;;;;;;19.83;10.63;;;10.20;99.90;;;;;;5009797;28;20043;-84
2021/12/17 13:39:59;;;;;;;17.92;11.20;;;10.10;99.90;;;;;;5006479;28;20040;-85
2021/12/17 13:42:32;;;;;;;17.58;10.55;;;10.20;99.90;;;;;;5005439;28;20059;-84
2021/12/17 13:45:00;;;;;;;20.08;11.60;;;10.10;99.90;;;;;;4993358;28;20044;-85
2021/12/17 13:47:28;;;;;;;19.02;10.90;;;10.00;99.90;;;;;;4990842;28;20552;-85
2021/12/17 13:50:06;;;;;;;16.48;11.02;;;10.00;99.90;;;;;;5002360;28;20316;-87
2021/12/17 13:52:35;;;;;;;20.02;11.45;;;10.10;99.90;;;;;;5021706;28;20761;-83
2021/12/17 13:55:05;;;;;;;19.60;11.32;;;10.10;99.90;;;;;;4999801;28;20079;-86
2021/12/17 13:57:32;;;;;;;18.95;11.40;;;10.10;99.90;;;;;;4995522;28;20905;-83
2021/12/17 14:00:04;;;;;;;16.48;10.40;;;10.10;99.90;;;;;;4988231;28;20052;-84
2021/12/17 14:02:34;;;;;;;17.42;10.68;;;10.10;99.90;;;;;;5006471;28;20937;-85
2021/12/17 14:05:07;;;;;;;18.58;10.98;;;10.10;99.90;;;;;;5001397;28;20047;-85
2021/12/17 14:07:35;;;;;;;19.52;10.38;;;10.10;99.90;;;;;;5002933;28;20722;-84
2021/12/17 14:10:14;;;;;;;17.30;9.90;;;10.00;99.90;;;;;;5005004;28;20070;-86
2021/12/17 14:12:42;;;;;;;22.10;11.50;;;9.90;99.90;;;;;;5000678;28;20073;-84
2021/12/17 14:15:16;;;;;;;20.50;11.32;;;9.90;99.90;;;;;;5001249;28;20039;-84
2021/12/17 14:17:46;;;;;;;16.77;10.13;;;10.00;99.90;;;;;;4994935;28;20047;-85
2021/12/17 14:20:43;;;;;;;19.38;10.65;;;10.00;99.90;;;;;;5003048;28;20090;-83
2021/12/17 14:23:19;;;;;;;17.33;10.13;;;10.00;99.90;;;;;;4992714;28;20052;-84
2021/12/17 14:25:52;;;;;;;17.33;10.00;;;10.00;99.90;;;;;;4982780;28;20043;-85
2021/12/17 14:28:24;;;;;;;20.73;10.40;;;10.00;99.90;;;;;;4999036;28;20866;-84
2021/12/17 14:31:02;;;;;;;16.88;10.20;;;10.00;99.90;;;;;;4986799;28;20501;-83
2021/12/17 14:33:32;;;;;;;18.77;10.43;;;9.90;99.90;;;;;;5002469;28;20047;-84
2021/12/17 14:36:04;;;;;;;19.98;11.85;;;9.90;99.90;;;;;;5001098;28;20672;-84
2021/12/17 14:38:35;;;;;;;18.33;11.30;;;9.90;99.90;;;;;;4997415;28;20635;-84
2021/12/17 14:41:02;;;;;;;19.23;11.05;;;9.90;99.90;;;;;;5020805;28;20649;-84
2021/12/17 14:43:34;;;;;;;18.17;11.10;;;9.80;99.90;;;;;;4983259;28;21720;-84
2021/12/17 15:04:48;;;;;;;16.30;9.70;;;9.80;99.90;;;;;;4969190;28;20123;-84
2021/12/17 15:07:14;;;;;;;16.60;10.07;;;9.80;99.90;;;;;;5008722;28;20144;-84
2021/12/17 15:09:44;;;;;;;14.40;9.20;;;9.80;99.90;;;;;;5011908;28;20058;-84
2021/12/17 15:12:55;;;;;;;20.05;9.73;;;9.70;99.90;;;;;;5011544;28;20450;-84
2021/12/17 15:15:01;;;;;;;18.05;9.52;;;9.80;99.90;;;;;;5000519;28;20431;-84
2021/12/17 15:17:26;;;;;;;15.02;8.57;;;9.80;99.90;;;;;;5018842;28;20039;-84
2021/12/17 15:19:52;;;;;;;12.88;7.28;;;9.80;99.90;;;;;;4987717;28;20055;-84
2021/12/17 15:22:18;;;;;;;11.38;6.55;;;9.80;99.90;;;;;;4982573;28;20051;-85
2021/12/17 15:24:44;;;;;;;11.88;6.40;;;9.70;99.90;;;;;;5001456;28;20634;-85
2021/12/17 15:27:12;;;;;;;11.13;6.60;;;9.60;99.90;;;;;;4987478;28;20693;-86
2021/12/17 15:29:38;;;;;;;10.80;6.55;;;9.70;99.90;;;;;;5008110;28;20055;-84
2021/12/17 15:32:04;;;;;;;13.35;6.68;;;9.60;99.90;;;;;;5001723;28;20505;-84
2021/12/17 15:34:30;;;;;;;10.65;5.90;;;9.70;99.90;;;;;;5001966;28;20622;-84
2021/12/17 15:36:57;;;;;;;31.60;6.90;;;9.60;99.90;;;;;;5004958;28;20043;-85
2021/12/17 15:39:23;;;;;;;15.10;6.15;;;9.60;99.90;;;;;;4990782;28;20790;-85
2021/12/17 15:41:49;;;;;;;13.18;5.68;;;9.60;99.90;;;;;;5017045;28;20170;-85
2021/12/17 15:44:15;;;;;;;10.98;5.30;;;9.60;99.90;;;;;;5008091;28;20402;-85
2021/12/17 15:46:41;;;;;;;10.07;6.10;;;9.60;99.90;;;;;;5004723;28;20446;-84
2021/12/17 15:49:06;;;;;;;15.40;7.55;;;9.60;99.90;;;;;;4981831;28;20563;-84
2021/12/17 15:51:35;;;;;;;12.18;7.20;;;9.70;99.90;;;;;;5008704;28;20820;-84
2021/12/17 15:54:00;;;;;;;11.52;6.95;;;9.60;99.90;;;;;;5001020;28;20051;-84
2021/12/17 15:56:26;;;;;;;10.80;6.65;;;9.60;99.90;;;;;;4994995;28;20044;-84
2021/12/17 15:58:52;;;;;;;11.10;6.43;;;9.70;99.90;;;;;;4996630;28;20074;-84
2021/12/17 16:01:18;;;;;;;9.15;5.75;;;9.60;99.90;;;;;;5041817;28;20043;-84
2021/12/17 16:03:44;;;;;;;12.18;6.18;;;9.60;99.90;;;;;;5004208;28;20114;-84
2021/12/17 16:06:10;;;;;;;11.60;6.30;;;9.50;99.90;;;;;;5052164;28;20851;-84
2021/12/17 16:08:43;;;;;;;15.68;6.70;;;9.50;99.90;;;;;;5024676;28;20548;-84
2021/12/17 16:22:05;;;;;;;11.90;6.50;;;9.60;99.90;;;;;;5013257;28;21106;-84